sensor_id;sensor_type;location;lat;lon;timestamp;P1;durP1;ratioP1;P2;durP2;ratioP2
12631;SDS011;6381;45.748;12.106;2023-02-02T00:00:55;107.70;;;93.23;;
12631;SDS011;6381;45.748;12.106;2023-02-02T00:03:25;116.77;;;95.73;;
12631;SDS011;6381;45.748;12.106;2023-02-02T00:05:54;110.63;;;93.60;;
12631;SDS011;6381;45.748;12.106;2023-02-02T00:08:23;115.00;;;96.33;;
12631;SDS011;6381;45.748;12.106;2023-02-02T00:10:52;112.93;;;96.03;;
12631;SDS011;6381;45.748;12.106;2023-02-02T00:13:21;115.33;;;100.30;;
12631;SDS011;6381;45.748;12.106;2023-02-02T00:15:52;117.40;;;101.33;;
12631;SDS011;6381;45.748;12.106;2023-02-02T00:18:22;118.33;;;99.80;;
12631;SDS011;6381;45.748;12.106;2023-02-02T00:21:00;115.60;;;98.23;;
12631;SDS011;6381;45.748;12.106;2023-02-02T00:23:30;111.80;;;94.20;;
12631;SDS011;6381;45.748;12.106;2023-02-02T00:25:59;113.23;;;96.77;;
12631;SDS011;6381;45.748;12.106;2023-02-02T00:28:28;106.10;;;92.97;;
12631;SDS011;6381;45.748;12.106;2023-02-02T00:30:59;111.30;;;93.97;;
12631;SDS011;6381;45.748;12.106;2023-02-02T00:33:28;109.57;;;93.07;;
12631;SDS011;6381;45.748;12.106;2023-02-02T00:36:00;105.77;;;89.73;;
12631;SDS011;6381;45.748;12.106;2023-02-02T00:38:29;105.37;;;89.27;;
12631;SDS011;6381;45.748;12.106;2023-02-02T00:41:03;106.67;;;87.83;;
12631;SDS011;6381;45.748;12.106;2023-02-02T00:43:33;106.53;;;91.10;;
12631;SDS011;6381;45.748;12.106;2023-02-02T00:46:03;108.53;;;90.00;;
12631;SDS011;6381;45.748;12.106;2023-02-02T00:48:32;104.87;;;87.07;;
12631;SDS011;6381;45.748;12.106;2023-02-02T00:51:02;109.73;;;91.10;;
12631;SDS011;6381;45.748;12.106;2023-02-02T00:53:31;102.00;;;87.10;;
12631;SDS011;6381;45.748;12.106;2023-02-02T00:55:59;109.33;;;89.63;;
12631;SDS011;6381;45.748;12.106;2023-02-02T00:58:28;103.17;;;87.80;;
12631;SDS011;6381;45.748;12.106;2023-02-02T01:00:56;107.87;;;89.83;;
12631;SDS011;6381;45.748;12.106;2023-02-02T01:03:26;106.27;;;90.77;;
12631;SDS011;6381;45.748;12.106;2023-02-02T01:05:55;104.30;;;90.03;;
12631;SDS011;6381;45.748;12.106;2023-02-02T01:08:24;106.10;;;90.30;;
12631;SDS011;6381;45.748;12.106;2023-02-02T01:10:52;103.70;;;88.63;;
12631;SDS011;6381;45.748;12.106;2023-02-02T01:13:21;101.90;;;89.23;;
12631;SDS011;6381;45.748;12.106;2023-02-02T01:15:53;106.57;;;91.93;;
12631;SDS011;6381;45.748;12.106;2023-02-02T01:18:22;109.67;;;96.30;;
12631;SDS011;6381;45.748;12.106;2023-02-02T01:20:56;107.40;;;90.07;;
12631;SDS011;6381;45.748;12.106;2023-02-02T01:23:26;108.50;;;91.97;;
12631;SDS011;6381;45.748;12.106;2023-02-02T01:25:55;108.30;;;91.97;;
12631;SDS011;6381;45.748;12.106;2023-02-02T01:28:25;100.17;;;87.50;;
12631;SDS011;6381;45.748;12.106;2023-02-02T01:30:54;97.40;;;83.63;;
12631;SDS011;6381;45.748;12.106;2023-02-02T01:33:23;97.77;;;82.97;;
12631;SDS011;6381;45.748;12.106;2023-02-02T01:35:53;99.10;;;86.07;;
12631;SDS011;6381;45.748;12.106;2023-02-02T01:38:24;94.57;;;83.57;;
12631;SDS011;6381;45.748;12.106;2023-02-02T01:40:55;96.63;;;81.83;;
12631;SDS011;6381;45.748;12.106;2023-02-02T01:43:26;106.20;;;87.47;;
12631;SDS011;6381;45.748;12.106;2023-02-02T01:45:56;98.83;;;86.70;;
12631;SDS011;6381;45.748;12.106;2023-02-02T01:48:27;104.53;;;87.10;;
12631;SDS011;6381;45.748;12.106;2023-02-02T01:50:59;101.70;;;87.87;;
12631;SDS011;6381;45.748;12.106;2023-02-02T01:53:34;108.70;;;89.77;;
12631;SDS011;6381;45.748;12.106;2023-02-02T01:56:04;106.83;;;91.93;;
12631;SDS011;6381;45.748;12.106;2023-02-02T01:58:35;111.33;;;94.40;;
12631;SDS011;6381;45.748;12.106;2023-02-02T02:01:08;111.30;;;93.43;;
12631;SDS011;6381;45.748;12.106;2023-02-02T02:03:37;110.70;;;94.17;;
12631;SDS011;6381;45.748;12.106;2023-02-02T02:06:07;111.13;;;93.73;;
12631;SDS011;6381;45.748;12.106;2023-02-02T02:08:41;112.50;;;97.00;;
12631;SDS011;6381;45.748;12.106;2023-02-02T02:11:13;117.60;;;97.93;;
12631;SDS011;6381;45.748;12.106;2023-02-02T02:13:42;115.47;;;98.97;;
12631;SDS011;6381;45.748;12.106;2023-02-02T02:16:30;113.53;;;97.60;;
12631;SDS011;6381;45.748;12.106;2023-02-02T02:19:14;117.27;;;99.30;;
12631;SDS011;6381;45.748;12.106;2023-02-02T02:22:03;120.57;;;99.67;;
12631;SDS011;6381;45.748;12.106;2023-02-02T02:31:36;113.73;;;99.43;;
12631;SDS011;6381;45.748;12.106;2023-02-02T02:34:24;108.87;;;93.67;;
12631;SDS011;6381;45.748;12.106;2023-02-02T02:37:02;111.17;;;94.63;;
12631;SDS011;6381;45.748;12.106;2023-02-02T02:39:40;111.57;;;89.43;;
12631;SDS011;6381;45.748;12.106;2023-02-02T02:42:14;106.33;;;89.73;;
12631;SDS011;6381;45.748;12.106;2023-02-02T02:44:48;102.73;;;87.90;;
12631;SDS011;6381;45.748;12.106;2023-02-02T02:47:20;99.23;;;87.43;;
12631;SDS011;6381;45.748;12.106;2023-02-02T02:49:49;99.93;;;86.57;;
12631;SDS011;6381;45.748;12.106;2023-02-02T02:52:18;107.57;;;82.60;;
12631;SDS011;6381;45.748;12.106;2023-02-02T02:54:48;97.97;;;85.93;;
12631;SDS011;6381;45.748;12.106;2023-02-02T02:57:26;100.40;;;84.43;;
12631;SDS011;6381;45.748;12.106;2023-02-02T03:00:11;98.53;;;83.83;;
12631;SDS011;6381;45.748;12.106;2023-02-02T03:02:56;99.00;;;83.40;;
12631;SDS011;6381;45.748;12.106;2023-02-02T03:05:32;100.37;;;83.43;;
12631;SDS011;6381;45.748;12.106;2023-02-02T03:08:07;100.10;;;83.50;;
12631;SDS011;6381;45.748;12.106;2023-02-02T03:10:39;78.77;;;63.67;;
12631;SDS011;6381;45.748;12.106;2023-02-02T03:13:11;94.73;;;81.50;;
12631;SDS011;6381;45.748;12.106;2023-02-02T03:15:41;91.70;;;80.47;;
12631;SDS011;6381;45.748;12.106;2023-02-02T03:18:13;90.43;;;77.90;;
12631;SDS011;6381;45.748;12.106;2023-02-02T03:20:44;89.97;;;76.80;;
12631;SDS011;6381;45.748;12.106;2023-02-02T03:23:13;85.27;;;74.60;;
12631;SDS011;6381;45.748;12.106;2023-02-02T03:25:42;90.40;;;77.50;;
12631;SDS011;6381;45.748;12.106;2023-02-02T03:28:11;88.27;;;74.87;;
12631;SDS011;6381;45.748;12.106;2023-02-02T03:30:40;86.80;;;74.30;;
12631;SDS011;6381;45.748;12.106;2023-02-02T03:33:09;92.60;;;80.97;;
12631;SDS011;6381;45.748;12.106;2023-02-02T03:35:41;87.10;;;77.50;;
12631;SDS011;6381;45.748;12.106;2023-02-02T03:38:09;92.97;;;77.00;;
12631;SDS011;6381;45.748;12.106;2023-02-02T03:40:39;85.77;;;74.23;;
12631;SDS011;6381;45.748;12.106;2023-02-02T03:43:09;94.27;;;77.00;;
12631;SDS011;6381;45.748;12.106;2023-02-02T03:45:37;88.67;;;75.20;;
12631;SDS011;6381;45.748;12.106;2023-02-02T03:48:07;91.60;;;74.23;;
12631;SDS011;6381;45.748;12.106;2023-02-02T03:50:35;88.33;;;75.93;;
12631;SDS011;6381;45.748;12.106;2023-02-02T03:53:05;88.90;;;76.43;;
12631;SDS011;6381;45.748;12.106;2023-02-02T03:55:34;95.10;;;80.47;;
12631;SDS011;6381;45.748;12.106;2023-02-02T03:58:04;102.73;;;82.80;;
12631;SDS011;6381;45.748;12.106;2023-02-02T04:00:35;102.17;;;85.53;;
12631;SDS011;6381;45.748;12.106;2023-02-02T04:03:04;98.87;;;83.70;;
12631;SDS011;6381;45.748;12.106;2023-02-02T04:05:33;97.57;;;81.33;;
12631;SDS011;6381;45.748;12.106;2023-02-02T04:08:01;94.23;;;81.67;;
12631;SDS011;6381;45.748;12.106;2023-02-02T04:10:31;94.37;;;79.47;;
12631;SDS011;6381;45.748;12.106;2023-02-02T04:13:00;95.80;;;78.87;;
12631;SDS011;6381;45.748;12.106;2023-02-02T04:15:29;87.70;;;76.57;;
12631;SDS011;6381;45.748;12.106;2023-02-02T04:17:58;88.60;;;75.53;;
12631;SDS011;6381;45.748;12.106;2023-02-02T04:20:26;93.23;;;79.53;;
12631;SDS011;6381;45.748;12.106;2023-02-02T04:22:55;87.97;;;73.70;;
12631;SDS011;6381;45.748;12.106;2023-02-02T04:25:24;90.17;;;78.03;;
12631;SDS011;6381;45.748;12.106;2023-02-02T04:27:54;92.30;;;75.57;;
12631;SDS011;6381;45.748;12.106;2023-02-02T04:30:22;92.07;;;78.47;;
12631;SDS011;6381;45.748;12.106;2023-02-02T04:32:51;89.77;;;77.50;;
12631;SDS011;6381;45.748;12.106;2023-02-02T04:35:21;90.67;;;77.80;;
12631;SDS011;6381;45.748;12.106;2023-02-02T04:37:50;90.57;;;77.63;;
12631;SDS011;6381;45.748;12.106;2023-02-02T04:40:19;88.47;;;73.10;;
12631;SDS011;6381;45.748;12.106;2023-02-02T04:42:47;89.70;;;76.50;;
12631;SDS011;6381;45.748;12.106;2023-02-02T04:45:17;93.57;;;76.23;;
12631;SDS011;6381;45.748;12.106;2023-02-02T04:47:46;96.13;;;80.70;;
12631;SDS011;6381;45.748;12.106;2023-02-02T04:50:15;91.17;;;78.10;;
12631;SDS011;6381;45.748;12.106;2023-02-02T04:52:44;95.37;;;81.30;;
12631;SDS011;6381;45.748;12.106;2023-02-02T04:55:12;94.07;;;79.50;;
12631;SDS011;6381;45.748;12.106;2023-02-02T04:57:41;88.77;;;76.57;;
12631;SDS011;6381;45.748;12.106;2023-02-02T05:00:10;94.77;;;81.43;;
12631;SDS011;6381;45.748;12.106;2023-02-02T05:02:41;90.87;;;78.87;;
12631;SDS011;6381;45.748;12.106;2023-02-02T05:05:11;88.00;;;75.90;;
12631;SDS011;6381;45.748;12.106;2023-02-02T05:07:41;89.60;;;76.63;;
12631;SDS011;6381;45.748;12.106;2023-02-02T05:10:10;92.43;;;79.40;;
12631;SDS011;6381;45.748;12.106;2023-02-02T05:12:38;89.73;;;77.80;;
12631;SDS011;6381;45.748;12.106;2023-02-02T05:15:07;95.90;;;78.50;;
12631;SDS011;6381;45.748;12.106;2023-02-02T05:17:37;90.47;;;77.17;;
12631;SDS011;6381;45.748;12.106;2023-02-02T05:20:08;88.17;;;76.33;;
12631;SDS011;6381;45.748;12.106;2023-02-02T05:22:37;90.30;;;74.80;;
12631;SDS011;6381;45.748;12.106;2023-02-02T05:25:06;90.70;;;74.10;;
12631;SDS011;6381;45.748;12.106;2023-02-02T05:27:35;82.83;;;72.07;;
12631;SDS011;6381;45.748;12.106;2023-02-02T05:30:05;87.27;;;73.40;;
12631;SDS011;6381;45.748;12.106;2023-02-02T05:32:34;83.03;;;70.87;;
12631;SDS011;6381;45.748;12.106;2023-02-02T05:35:03;78.97;;;69.97;;
12631;SDS011;6381;45.748;12.106;2023-02-02T05:37:34;88.67;;;72.67;;
12631;SDS011;6381;45.748;12.106;2023-02-02T05:40:02;81.33;;;69.10;;
12631;SDS011;6381;45.748;12.106;2023-02-02T05:42:32;79.43;;;68.20;;
12631;SDS011;6381;45.748;12.106;2023-02-02T05:45:00;81.83;;;69.43;;
12631;SDS011;6381;45.748;12.106;2023-02-02T05:47:29;77.53;;;68.67;;
12631;SDS011;6381;45.748;12.106;2023-02-02T05:49:57;78.57;;;67.63;;
12631;SDS011;6381;45.748;12.106;2023-02-02T05:52:27;75.53;;;66.43;;
12631;SDS011;6381;45.748;12.106;2023-02-02T05:55:03;77.07;;;68.60;;
12631;SDS011;6381;45.748;12.106;2023-02-02T05:57:32;85.07;;;68.63;;
12631;SDS011;6381;45.748;12.106;2023-02-02T06:00:01;81.03;;;71.10;;
12631;SDS011;6381;45.748;12.106;2023-02-02T06:02:37;86.20;;;71.70;;
12631;SDS011;6381;45.748;12.106;2023-02-02T06:05:06;91.03;;;71.47;;
12631;SDS011;6381;45.748;12.106;2023-02-02T06:07:35;93.37;;;72.40;;
12631;SDS011;6381;45.748;12.106;2023-02-02T06:10:05;77.70;;;66.67;;
12631;SDS011;6381;45.748;12.106;2023-02-02T06:12:34;84.50;;;68.57;;
12631;SDS011;6381;45.748;12.106;2023-02-02T06:15:03;87.43;;;73.17;;
12631;SDS011;6381;45.748;12.106;2023-02-02T06:17:32;92.80;;;78.77;;
12631;SDS011;6381;45.748;12.106;2023-02-02T06:20:01;89.63;;;75.53;;
12631;SDS011;6381;45.748;12.106;2023-02-02T06:22:30;91.37;;;76.80;;
12631;SDS011;6381;45.748;12.106;2023-02-02T06:24:59;92.43;;;79.13;;
12631;SDS011;6381;45.748;12.106;2023-02-02T06:27:31;94.37;;;81.03;;
12631;SDS011;6381;45.748;12.106;2023-02-02T06:30:00;98.27;;;80.53;;
12631;SDS011;6381;45.748;12.106;2023-02-02T06:32:28;99.43;;;83.57;;
12631;SDS011;6381;45.748;12.106;2023-02-02T06:34:57;106.90;;;87.20;;
12631;SDS011;6381;45.748;12.106;2023-02-02T06:37:25;116.33;;;97.70;;
12631;SDS011;6381;45.748;12.106;2023-02-02T06:39:56;113.07;;;92.13;;
12631;SDS011;6381;45.748;12.106;2023-02-02T06:42:24;111.30;;;96.97;;
12631;SDS011;6381;45.748;12.106;2023-02-02T06:44:54;137.40;;;116.83;;
12631;SDS011;6381;45.748;12.106;2023-02-02T06:47:23;148.27;;;123.63;;
12631;SDS011;6381;45.748;12.106;2023-02-02T06:49:52;137.83;;;111.03;;
12631;SDS011;6381;45.748;12.106;2023-02-02T06:52:21;141.67;;;112.77;;
12631;SDS011;6381;45.748;12.106;2023-02-02T06:54:49;141.23;;;112.67;;
12631;SDS011;6381;45.748;12.106;2023-02-02T06:57:18;137.40;;;111.30;;
12631;SDS011;6381;45.748;12.106;2023-02-02T06:59:47;135.93;;;111.77;;
12631;SDS011;6381;45.748;12.106;2023-02-02T07:02:18;140.27;;;112.97;;
12631;SDS011;6381;45.748;12.106;2023-02-02T07:04:49;163.93;;;127.87;;
12631;SDS011;6381;45.748;12.106;2023-02-02T07:07:18;155.13;;;123.80;;
12631;SDS011;6381;45.748;12.106;2023-02-02T07:09:47;138.07;;;115.70;;
12631;SDS011;6381;45.748;12.106;2023-02-02T07:12:24;157.63;;;119.90;;
12631;SDS011;6381;45.748;12.106;2023-02-02T07:14:53;139.73;;;116.67;;
12631;SDS011;6381;45.748;12.106;2023-02-02T07:17:23;145.17;;;116.43;;
12631;SDS011;6381;45.748;12.106;2023-02-02T07:19:52;133.57;;;112.67;;
12631;SDS011;6381;45.748;12.106;2023-02-02T07:22:20;138.37;;;116.57;;
12631;SDS011;6381;45.748;12.106;2023-02-02T07:24:49;132.63;;;110.37;;
12631;SDS011;6381;45.748;12.106;2023-02-02T07:27:20;141.67;;;115.93;;
12631;SDS011;6381;45.748;12.106;2023-02-02T07:29:48;142.50;;;115.57;;
12631;SDS011;6381;45.748;12.106;2023-02-02T07:32:17;142.13;;;112.80;;
12631;SDS011;6381;45.748;12.106;2023-02-02T07:34:47;139.93;;;112.97;;
12631;SDS011;6381;45.748;12.106;2023-02-02T07:37:16;135.43;;;112.03;;
12631;SDS011;6381;45.748;12.106;2023-02-02T07:39:44;145.70;;;115.53;;
12631;SDS011;6381;45.748;12.106;2023-02-02T07:42:13;149.03;;;116.93;;
12631;SDS011;6381;45.748;12.106;2023-02-02T07:44:42;140.03;;;113.87;;
12631;SDS011;6381;45.748;12.106;2023-02-02T07:47:10;161.10;;;126.13;;
12631;SDS011;6381;45.748;12.106;2023-02-02T07:49:39;146.67;;;118.80;;
12631;SDS011;6381;45.748;12.106;2023-02-02T07:52:09;157.97;;;127.73;;
12631;SDS011;6381;45.748;12.106;2023-02-02T07:54:38;153.90;;;124.57;;
12631;SDS011;6381;45.748;12.106;2023-02-02T07:57:07;151.73;;;125.53;;
12631;SDS011;6381;45.748;12.106;2023-02-02T07:59:35;153.93;;;125.03;;
12631;SDS011;6381;45.748;12.106;2023-02-02T08:02:04;154.77;;;128.13;;
12631;SDS011;6381;45.748;12.106;2023-02-02T08:04:32;146.40;;;122.17;;
12631;SDS011;6381;45.748;12.106;2023-02-02T08:07:01;143.33;;;120.57;;
12631;SDS011;6381;45.748;12.106;2023-02-02T08:09:31;153.17;;;123.97;;
12631;SDS011;6381;45.748;12.106;2023-02-02T08:12:00;142.03;;;118.00;;
12631;SDS011;6381;45.748;12.106;2023-02-02T08:14:28;154.47;;;122.40;;
12631;SDS011;6381;45.748;12.106;2023-02-02T08:16:57;149.80;;;120.53;;
12631;SDS011;6381;45.748;12.106;2023-02-02T08:19:26;157.10;;;123.20;;
12631;SDS011;6381;45.748;12.106;2023-02-02T08:21:55;154.67;;;121.27;;
12631;SDS011;6381;45.748;12.106;2023-02-02T08:24:23;145.77;;;118.10;;
12631;SDS011;6381;45.748;12.106;2023-02-02T08:26:56;139.10;;;114.90;;
12631;SDS011;6381;45.748;12.106;2023-02-02T08:29:24;140.07;;;114.37;;
12631;SDS011;6381;45.748;12.106;2023-02-02T08:31:53;146.93;;;116.27;;
12631;SDS011;6381;45.748;12.106;2023-02-02T08:34:21;138.47;;;110.27;;
12631;SDS011;6381;45.748;12.106;2023-02-02T08:36:50;148.23;;;115.50;;
12631;SDS011;6381;45.748;12.106;2023-02-02T08:39:18;140.33;;;105.50;;
12631;SDS011;6381;45.748;12.106;2023-02-02T08:41:48;132.30;;;106.00;;
12631;SDS011;6381;45.748;12.106;2023-02-02T08:44:18;141.70;;;109.40;;
12631;SDS011;6381;45.748;12.106;2023-02-02T08:46:49;142.13;;;111.13;;
12631;SDS011;6381;45.748;12.106;2023-02-02T08:49:19;136.83;;;109.40;;
12631;SDS011;6381;45.748;12.106;2023-02-02T08:51:48;129.43;;;101.90;;
12631;SDS011;6381;45.748;12.106;2023-02-02T08:54:16;141.63;;;106.70;;
12631;SDS011;6381;45.748;12.106;2023-02-02T08:56:45;135.07;;;107.13;;
12631;SDS011;6381;45.748;12.106;2023-02-02T08:59:13;146.80;;;112.77;;
12631;SDS011;6381;45.748;12.106;2023-02-02T09:01:43;141.27;;;113.90;;
12631;SDS011;6381;45.748;12.106;2023-02-02T09:04:13;146.97;;;113.07;;
12631;SDS011;6381;45.748;12.106;2023-02-02T09:06:43;146.63;;;108.83;;
12631;SDS011;6381;45.748;12.106;2023-02-02T09:09:12;145.03;;;111.83;;
12631;SDS011;6381;45.748;12.106;2023-02-02T09:11:42;135.80;;;108.40;;
12631;SDS011;6381;45.748;12.106;2023-02-02T09:14:11;137.13;;;104.77;;
12631;SDS011;6381;45.748;12.106;2023-02-02T09:16:41;137.03;;;107.63;;
12631;SDS011;6381;45.748;12.106;2023-02-02T09:19:11;141.07;;;107.40;;
12631;SDS011;6381;45.748;12.106;2023-02-02T09:21:40;145.87;;;109.73;;
12631;SDS011;6381;45.748;12.106;2023-02-02T09:24:09;146.90;;;109.63;;
12631;SDS011;6381;45.748;12.106;2023-02-02T09:26:38;149.33;;;110.10;;
12631;SDS011;6381;45.748;12.106;2023-02-02T09:29:09;149.27;;;111.57;;
12631;SDS011;6381;45.748;12.106;2023-02-02T09:31:39;135.63;;;103.10;;
12631;SDS011;6381;45.748;12.106;2023-02-02T09:34:08;139.70;;;106.70;;
12631;SDS011;6381;45.748;12.106;2023-02-02T09:36:40;137.60;;;102.73;;
12631;SDS011;6381;45.748;12.106;2023-02-02T09:39:10;131.00;;;100.90;;
12631;SDS011;6381;45.748;12.106;2023-02-02T09:41:48;137.03;;;100.57;;
12631;SDS011;6381;45.748;12.106;2023-02-02T09:44:33;132.43;;;101.00;;
12631;SDS011;6381;45.748;12.106;2023-02-02T09:47:23;136.40;;;103.20;;
12631;SDS011;6381;45.748;12.106;2023-02-02T09:50:00;141.30;;;104.17;;
12631;SDS011;6381;45.748;12.106;2023-02-02T09:52:33;137.73;;;101.90;;
12631;SDS011;6381;45.748;12.106;2023-02-02T09:55:10;140.17;;;106.27;;
12631;SDS011;6381;45.748;12.106;2023-02-02T09:57:46;135.50;;;103.50;;
12631;SDS011;6381;45.748;12.106;2023-02-02T10:00:21;131.50;;;100.40;;
12631;SDS011;6381;45.748;12.106;2023-02-02T10:02:57;138.30;;;103.30;;
12631;SDS011;6381;45.748;12.106;2023-02-02T10:05:33;135.60;;;100.50;;
12631;SDS011;6381;45.748;12.106;2023-02-02T10:08:12;133.97;;;100.20;;
12631;SDS011;6381;45.748;12.106;2023-02-02T10:11:00;136.63;;;103.57;;
12631;SDS011;6381;45.748;12.106;2023-02-02T10:13:38;135.67;;;99.30;;
12631;SDS011;6381;45.748;12.106;2023-02-02T10:16:11;135.33;;;100.93;;
12631;SDS011;6381;45.748;12.106;2023-02-02T10:18:45;134.03;;;100.60;;
12631;SDS011;6381;45.748;12.106;2023-02-02T10:21:22;143.70;;;101.53;;
12631;SDS011;6381;45.748;12.106;2023-02-02T10:23:56;129.03;;;97.80;;
12631;SDS011;6381;45.748;12.106;2023-02-02T10:26:29;129.53;;;94.93;;
12631;SDS011;6381;45.748;12.106;2023-02-02T10:29:12;132.70;;;97.90;;
12631;SDS011;6381;45.748;12.106;2023-02-02T10:31:48;139.83;;;99.47;;
12631;SDS011;6381;45.748;12.106;2023-02-02T10:34:25;127.53;;;96.90;;
12631;SDS011;6381;45.748;12.106;2023-02-02T10:37:14;115.63;;;88.70;;
12631;SDS011;6381;45.748;12.106;2023-02-02T10:39:57;120.83;;;92.70;;
12631;SDS011;6381;45.748;12.106;2023-02-02T10:42:41;124.10;;;93.53;;
12631;SDS011;6381;45.748;12.106;2023-02-02T10:45:39;123.43;;;91.23;;
12631;SDS011;6381;45.748;12.106;2023-02-02T10:48:12;129.97;;;92.97;;
12631;SDS011;6381;45.748;12.106;2023-02-02T10:50:42;124.70;;;92.60;;
12631;SDS011;6381;45.748;12.106;2023-02-02T10:53:16;121.03;;;88.87;;
12631;SDS011;6381;45.748;12.106;2023-02-02T10:55:47;109.90;;;85.80;;
12631;SDS011;6381;45.748;12.106;2023-02-02T10:58:22;122.80;;;89.80;;
12631;SDS011;6381;45.748;12.106;2023-02-02T11:00:54;121.33;;;88.10;;
12631;SDS011;6381;45.748;12.106;2023-02-02T11:03:28;123.20;;;87.97;;
12631;SDS011;6381;45.748;12.106;2023-02-02T11:05:59;114.20;;;84.53;;
12631;SDS011;6381;45.748;12.106;2023-02-02T11:08:49;112.87;;;86.10;;
12631;SDS011;6381;45.748;12.106;2023-02-02T11:11:23;121.33;;;88.07;;
12631;SDS011;6381;45.748;12.106;2023-02-02T11:13:54;112.83;;;85.87;;
12631;SDS011;6381;45.748;12.106;2023-02-02T11:16:26;117.97;;;86.67;;
12631;SDS011;6381;45.748;12.106;2023-02-02T11:19:20;112.33;;;86.60;;
12631;SDS011;6381;45.748;12.106;2023-02-02T11:21:51;113.50;;;84.20;;
12631;SDS011;6381;45.748;12.106;2023-02-02T11:24:25;111.73;;;84.53;;
12631;SDS011;6381;45.748;12.106;2023-02-02T11:26:55;116.27;;;88.23;;
12631;SDS011;6381;45.748;12.106;2023-02-02T11:29:28;118.13;;;88.00;;
12631;SDS011;6381;45.748;12.106;2023-02-02T11:34:45;116.20;;;85.90;;
12631;SDS011;6381;45.748;12.106;2023-02-02T11:37:14;119.03;;;89.10;;
12631;SDS011;6381;45.748;12.106;2023-02-02T11:39:49;119.53;;;88.83;;
12631;SDS011;6381;45.748;12.106;2023-02-02T11:42:19;121.33;;;91.60;;
12631;SDS011;6381;45.748;12.106;2023-02-02T11:44:51;112.40;;;86.67;;
12631;SDS011;6381;45.748;12.106;2023-02-02T11:47:23;116.57;;;83.60;;
12631;SDS011;6381;45.748;12.106;2023-02-02T11:49:54;115.73;;;84.03;;
12631;SDS011;6381;45.748;12.106;2023-02-02T11:52:26;112.17;;;84.87;;
12631;SDS011;6381;45.748;12.106;2023-02-02T11:55:00;112.10;;;86.17;;
12631;SDS011;6381;45.748;12.106;2023-02-02T11:57:36;108.33;;;84.50;;
12631;SDS011;6381;45.748;12.106;2023-02-02T12:00:05;109.03;;;81.93;;
12631;SDS011;6381;45.748;12.106;2023-02-02T12:02:44;110.13;;;84.43;;
12631;SDS011;6381;45.748;12.106;2023-02-02T12:05:31;115.40;;;88.67;;
12631;SDS011;6381;45.748;12.106;2023-02-02T12:08:01;107.03;;;82.20;;
12631;SDS011;6381;45.748;12.106;2023-02-02T12:10:33;99.20;;;79.23;;
12631;SDS011;6381;45.748;12.106;2023-02-02T12:13:09;110.03;;;81.43;;
12631;SDS011;6381;45.748;12.106;2023-02-02T12:15:46;110.00;;;83.70;;
12631;SDS011;6381;45.748;12.106;2023-02-02T12:18:27;101.87;;;80.27;;
12631;SDS011;6381;45.748;12.106;2023-02-02T12:21:05;105.93;;;82.73;;
12631;SDS011;6381;45.748;12.106;2023-02-02T12:23:46;100.13;;;79.20;;
12631;SDS011;6381;45.748;12.106;2023-02-02T12:26:24;112.17;;;81.83;;
12631;SDS011;6381;45.748;12.106;2023-02-02T12:31:55;104.10;;;78.40;;
12631;SDS011;6381;45.748;12.106;2023-02-02T12:34:36;107.43;;;82.90;;
12631;SDS011;6381;45.748;12.106;2023-02-02T12:37:17;105.83;;;80.47;;
12631;SDS011;6381;45.748;12.106;2023-02-02T12:40:02;115.97;;;89.23;;
12631;SDS011;6381;45.748;12.106;2023-02-02T12:42:53;110.87;;;83.93;;
12631;SDS011;6381;45.748;12.106;2023-02-02T12:45:36;108.27;;;82.33;;
12631;SDS011;6381;45.748;12.106;2023-02-02T12:48:22;106.10;;;79.90;;
12631;SDS011;6381;45.748;12.106;2023-02-02T12:51:05;102.43;;;79.77;;
12631;SDS011;6381;45.748;12.106;2023-02-02T12:53:52;103.73;;;80.60;;
12631;SDS011;6381;45.748;12.106;2023-02-02T12:57:01;105.13;;;80.10;;
12631;SDS011;6381;45.748;12.106;2023-02-02T12:59:49;102.10;;;78.33;;
12631;SDS011;6381;45.748;12.106;2023-02-02T13:02:32;96.47;;;77.87;;
12631;SDS011;6381;45.748;12.106;2023-02-02T13:07:59;105.73;;;80.47;;
12631;SDS011;6381;45.748;12.106;2023-02-02T13:10:33;102.07;;;79.17;;
12631;SDS011;6381;45.748;12.106;2023-02-02T13:13:07;101.20;;;78.27;;
12631;SDS011;6381;45.748;12.106;2023-02-02T13:15:43;93.63;;;75.23;;
12631;SDS011;6381;45.748;12.106;2023-02-02T13:18:15;102.30;;;76.80;;
12631;SDS011;6381;45.748;12.106;2023-02-02T13:20:48;101.77;;;76.20;;
12631;SDS011;6381;45.748;12.106;2023-02-02T13:23:22;100.93;;;78.13;;
12631;SDS011;6381;45.748;12.106;2023-02-02T13:25:56;95.77;;;75.43;;
12631;SDS011;6381;45.748;12.106;2023-02-02T13:28:34;96.37;;;75.23;;
12631;SDS011;6381;45.748;12.106;2023-02-02T13:31:10;93.97;;;75.10;;
12631;SDS011;6381;45.748;12.106;2023-02-02T13:33:43;96.50;;;75.20;;
12631;SDS011;6381;45.748;12.106;2023-02-02T13:36:17;96.93;;;76.47;;
12631;SDS011;6381;45.748;12.106;2023-02-02T13:38:52;99.63;;;77.10;;
12631;SDS011;6381;45.748;12.106;2023-02-02T13:41:24;99.93;;;77.83;;
12631;SDS011;6381;45.748;12.106;2023-02-02T13:43:55;100.20;;;78.83;;
12631;SDS011;6381;45.748;12.106;2023-02-02T13:46:30;102.50;;;78.67;;
12631;SDS011;6381;45.748;12.106;2023-02-02T13:49:04;99.77;;;78.63;;
12631;SDS011;6381;45.748;12.106;2023-02-02T13:51:47;100.13;;;78.37;;
12631;SDS011;6381;45.748;12.106;2023-02-02T14:00:18;95.60;;;77.00;;
12631;SDS011;6381;45.748;12.106;2023-02-02T14:02:51;100.10;;;77.37;;
12631;SDS011;6381;45.748;12.106;2023-02-02T14:05:23;103.37;;;77.37;;
12631;SDS011;6381;45.748;12.106;2023-02-02T14:07:55;98.50;;;77.27;;
12631;SDS011;6381;45.748;12.106;2023-02-02T14:10:29;98.50;;;76.20;;
12631;SDS011;6381;45.748;12.106;2023-02-02T14:13:14;104.77;;;80.50;;
12631;SDS011;6381;45.748;12.106;2023-02-02T14:16:04;107.40;;;79.97;;
12631;SDS011;6381;45.748;12.106;2023-02-02T14:24:38;101.53;;;78.70;;
12631;SDS011;6381;45.748;12.106;2023-02-02T14:30:21;101.90;;;77.73;;
12631;SDS011;6381;45.748;12.106;2023-02-02T14:36:11;100.20;;;77.97;;
12631;SDS011;6381;45.748;12.106;2023-02-02T14:41:44;105.27;;;82.63;;
12631;SDS011;6381;45.748;12.106;2023-02-02T14:45:03;99.37;;;78.60;;
12631;SDS011;6381;45.748;12.106;2023-02-02T14:47:41;104.67;;;80.67;;
12631;SDS011;6381;45.748;12.106;2023-02-02T14:50:15;104.23;;;81.20;;
12631;SDS011;6381;45.748;12.106;2023-02-02T14:52:56;98.53;;;80.67;;
12631;SDS011;6381;45.748;12.106;2023-02-02T14:55:28;103.40;;;80.23;;
12631;SDS011;6381;45.748;12.106;2023-02-02T14:57:59;107.67;;;81.70;;
12631;SDS011;6381;45.748;12.106;2023-02-02T15:00:29;102.73;;;79.80;;
12631;SDS011;6381;45.748;12.106;2023-02-02T15:06:02;105.37;;;79.03;;
12631;SDS011;6381;45.748;12.106;2023-02-02T15:08:35;105.83;;;82.00;;
12631;SDS011;6381;45.748;12.106;2023-02-02T15:11:05;101.70;;;76.97;;
12631;SDS011;6381;45.748;12.106;2023-02-02T15:13:56;103.67;;;82.00;;
12631;SDS011;6381;45.748;12.106;2023-02-02T15:16:33;100.57;;;77.20;;
12631;SDS011;6381;45.748;12.106;2023-02-02T15:19:05;104.80;;;79.67;;